createdAt,value
2022-12-28T00:01:29.494Z,101691.25
2022-12-28T00:04:00.024Z,101680.94
2022-12-28T00:06:27.756Z,101666.25
2022-12-28T00:08:56.456Z,101672.22
2022-12-28T00:11:28.291Z,101678.22
2022-12-28T00:14:00.302Z,101664.38
2022-12-28T00:16:39.625Z,101671.28
2022-12-28T00:19:13.404Z,101672.09
2022-12-28T00:21:41.022Z,101666.13
2022-12-28T00:24:09.271Z,101665.25
2022-12-28T00:26:36.513Z,101666.13
2022-12-28T00:29:05.515Z,101663.50
2022-12-28T00:31:34.148Z,101643.38
2022-12-28T00:34:02.474Z,101646.16
2022-12-28T00:37:10.312Z,101652.09
2022-12-28T00:39:16.743Z,101646.03
2022-12-28T00:41:43.789Z,101633.81
2022-12-28T00:44:11.079Z,101638.22
2022-12-28T00:46:38.070Z,101642.63
2022-12-28T00:49:05.014Z,101650.44
2022-12-28T00:51:33.452Z,101647.16
2022-12-28T00:54:00.380Z,101642.19
2022-12-28T00:56:27.278Z,101638.00
2022-12-28T00:58:59.214Z,101633.00
2022-12-28T01:01:28.176Z,101632.28
2022-12-28T01:03:57.064Z,101633.31
2022-12-28T01:06:27.580Z,101627.50
2022-12-28T01:08:55.009Z,101625.16
2022-12-28T01:11:28.158Z,101632.22
2022-12-28T01:13:58.881Z,101623.78
2022-12-28T01:16:29.198Z,101617.88
2022-12-28T01:18:59.632Z,101608.56
2022-12-28T01:21:31.399Z,101610.41
2022-12-28T01:24:02.045Z,101601.91
2022-12-28T01:26:31.849Z,101598.56
2022-12-28T01:28:58.756Z,101594.50
2022-12-28T01:31:26.182Z,101570.31
2022-12-28T01:33:53.514Z,101578.34
2022-12-28T01:36:26.257Z,101572.53
2022-12-28T01:38:57.167Z,101570.97
2022-12-28T01:41:26.416Z,101562.44
2022-12-28T01:43:53.184Z,101552.22
2022-12-28T01:46:44.152Z,101541.94
2022-12-28T01:49:32.532Z,101538.50
2022-12-28T01:52:22.207Z,101527.38
2022-12-28T01:55:11.549Z,101527.53
2022-12-28T01:57:52.078Z,101528.44
2022-12-28T02:00:19.165Z,101513.94
2022-12-28T02:03:01.304Z,101509.72
2022-12-28T02:05:34.036Z,101499.47
2022-12-28T02:08:24.864Z,101492.72
2022-12-28T02:10:53.169Z,101477.38
2022-12-28T02:13:22.529Z,101474.00
2022-12-28T02:15:49.843Z,101464.63
2022-12-28T02:18:19.535Z,101463.84
2022-12-28T02:21:09.431Z,101453.50
2022-12-28T02:24:15.359Z,101450.97
2022-12-28T02:26:56.622Z,101438.91
2022-12-28T02:29:43.951Z,101444.97
2022-12-28T02:32:34.629Z,101432.97
2022-12-28T02:35:13.654Z,101429.59
2022-12-28T02:37:51.779Z,101422.75
2022-12-28T02:40:52.088Z,101418.53
2022-12-28T02:43:19.280Z,101415.19
2022-12-28T02:46:06.702Z,101412.66
2022-12-28T02:49:05.256Z,101403.25
2022-12-28T02:52:26.145Z,101402.47
2022-12-28T02:55:44.419Z,101388.66
2022-12-28T02:58:38.764Z,101386.16
2022-12-28T03:01:52.239Z,101377.59
2022-12-28T03:04:59.440Z,101377.59
2022-12-28T03:08:13.575Z,101369.88
2022-12-28T03:11:16.645Z,101358.69
2022-12-28T03:13:56.864Z,101344.03
2022-12-28T03:17:13.434Z,101353.59
2022-12-28T03:20:05.904Z,101357.03
2022-12-28T03:22:54.174Z,101340.59
2022-12-28T03:25:44.389Z,101345.91
2022-12-28T03:28:35.231Z,101342.47
2022-12-28T03:31:19.191Z,101334.75
2022-12-28T03:33:54.088Z,101340.03
2022-12-28T03:36:31.380Z,101334.00
2022-12-28T03:39:38.682Z,101330.59
2022-12-28T03:42:40.636Z,101313.34
2022-12-28T03:45:55.242Z,101308.16
2022-12-28T03:48:23.253Z,101304.72
2022-12-28T03:50:53.497Z,101288.38
2022-12-28T03:53:27.019Z,101280.63
2022-12-28T03:56:14.481Z,101275.44
2022-12-28T03:58:43.751Z,101256.25
2022-12-28T04:01:11.042Z,101272.84
2022-12-28T04:03:40.063Z,101256.38
2022-12-28T04:06:07.811Z,101254.72
2022-12-28T04:08:35.185Z,101257.31
2022-12-28T04:11:04.218Z,101250.41
2022-12-28T04:13:32.179Z,101240.91
2022-12-28T04:16:10.040Z,101237.41
2022-12-28T04:18:38.045Z,101232.25
2022-12-28T04:21:05.215Z,101232.25
2022-12-28T04:23:32.734Z,101230.38
2022-12-28T04:26:17.130Z,101221.75
2022-12-28T04:28:45.872Z,101221.75
2022-12-28T04:31:37.921Z,101210.50
2022-12-28T04:34:12.145Z,101205.34
2022-12-28T04:36:43.766Z,101216.47
2022-12-28T04:39:14.349Z,101211.31
2022-12-28T04:41:41.270Z,101217.34
2022-12-28T04:44:08.181Z,101218.22
2022-12-28T04:46:35.166Z,101217.34
2022-12-28T04:49:02.141Z,101222.53
2022-12-28T04:51:30.218Z,101213.09
2022-12-28T04:53:58.071Z,101219.97
2022-12-28T04:56:26.855Z,101224.31
2022-12-28T04:58:59.552Z,101220.94
2022-12-28T05:01:26.928Z,101229.56
2022-12-28T05:03:58.068Z,101224.44
2022-12-28T05:06:27.717Z,101227.06
2022-12-28T05:08:56.852Z,101227.06
2022-12-28T05:11:27.909Z,101209.84
2022-12-28T05:13:55.156Z,101221.88
2022-12-28T05:16:25.896Z,101216.69
2022-12-28T05:18:53.256Z,101196.84
2022-12-28T05:21:23.780Z,101199.44
2022-12-28T05:23:52.047Z,101198.56
2022-12-28T05:26:23.589Z,101194.25
2022-12-28T05:28:50.606Z,101188.22
2022-12-28T05:31:21.161Z,101184.75
2022-12-28T05:33:48.754Z,101188.22
2022-12-28T05:36:26.232Z,101171.81
2022-12-28T05:38:53.995Z,101171.81
2022-12-28T05:41:27.475Z,101164.84
2022-12-28T05:43:55.769Z,101152.00
2022-12-28T05:46:32.722Z,101161.47
2022-12-28T05:49:00.514Z,101139.06
2022-12-28T05:51:31.181Z,101138.19
2022-12-28T05:54:04.453Z,101126.16
2022-12-28T05:56:32.589Z,101127.91
2022-12-28T05:59:04.253Z,101133.19
2022-12-28T06:01:35.816Z,101117.66
2022-12-28T06:04:06.477Z,101117.66
2022-12-28T06:06:35.918Z,101111.63
2022-12-28T06:09:02.942Z,101108.16
2022-12-28T06:11:30.272Z,101102.13
2022-12-28T06:13:59.279Z,101097.88
2022-12-28T06:16:30.121Z,101096.16
2022-12-28T06:18:58.055Z,101088.38
2022-12-28T06:21:30.873Z,101095.34
2022-12-28T06:24:00.245Z,101078.09
2022-12-28T06:26:30.158Z,101080.63
2022-12-28T06:28:57.650Z,101074.69
2022-12-28T06:31:28.641Z,101066.94
2022-12-28T06:33:59.240Z,101054.03
2022-12-28T06:36:44.628Z,101053.19
2022-12-28T06:39:13.898Z,101048.00
2022-12-28T06:41:41.706Z,101032.47
2022-12-28T06:44:13.687Z,101035.91
2022-12-28T06:46:40.672Z,101044.56
2022-12-28T06:49:07.965Z,101038.50
2022-12-28T06:51:40.373Z,101032.47
2022-12-28T06:54:08.251Z,101021.13
2022-12-28T06:56:36.301Z,101030.81
2022-12-28T06:59:04.480Z,101024.81
2022-12-28T07:01:41.285Z,101025.72
2022-12-28T07:04:10.227Z,101018.81
2022-12-28T07:06:41.475Z,101024.88
2022-12-28T07:09:15.397Z,101013.59
2022-12-28T07:11:44.115Z,101004.09
2022-12-28T07:14:11.739Z,101008.41
2022-12-28T07:19:04.584Z,101004.91
2022-12-28T07:21:37.084Z,100999.72
2022-12-28T07:24:05.459Z,100993.69
2022-12-28T07:26:36.028Z,100982.47
2022-12-28T07:29:06.002Z,100982.47
2022-12-28T07:31:44.028Z,100977.28
2022-12-28T07:34:12.697Z,100961.75
2022-12-28T07:36:39.606Z,100954.84
2022-12-28T07:39:06.488Z,100953.97
2022-12-28T07:41:36.016Z,100949.63
2022-12-28T07:44:05.817Z,100942.84
2022-12-28T07:46:35.840Z,100946.31
2022-12-28T07:49:02.904Z,100938.50
2022-12-28T07:51:35.685Z,100930.78
2022-12-28T07:54:03.834Z,100934.22
2022-12-28T07:59:01.794Z,100926.53
2022-12-28T08:01:32.245Z,100936.94
2022-12-28T08:04:09.192Z,100933.50
2022-12-28T08:06:42.135Z,100918.81
2022-12-28T08:09:11.561Z,100920.59
2022-12-28T08:11:44.955Z,100918.91
2022-12-28T08:14:12.513Z,100917.25
2022-12-28T08:16:43.011Z,100921.56
2022-12-28T08:19:10.314Z,100884.22
2022-12-28T08:21:41.226Z,100905.16
2022-12-28T08:24:10.286Z,100898.19
2022-12-28T08:26:39.685Z,100896.47
2022-12-28T08:29:12.377Z,100891.34
2022-12-28T08:31:42.154Z,100898.25
2022-12-28T08:34:13.506Z,100893.94
2022-12-28T08:36:40.804Z,100898.31
2022-12-28T08:39:07.731Z,100896.59
2022-12-28T08:41:34.843Z,100901.81
2022-12-28T08:44:01.782Z,100892.34
2022-12-28T08:46:32.209Z,100897.50
2022-12-28T08:49:00.070Z,100899.16
2022-12-28T08:51:34.654Z,100909.53
2022-12-28T08:54:02.518Z,100892.31
2022-12-28T08:56:33.523Z,100883.63
2022-12-28T08:59:01.120Z,100892.28
2022-12-28T09:01:35.880Z,100884.53
2022-12-28T09:04:07.693Z,100889.72
2022-12-28T09:06:38.285Z,100883.69
2022-12-28T09:09:10.693Z,100883.72
2022-12-28T09:11:39.104Z,100876.00
2022-12-28T09:14:09.376Z,100874.22
2022-12-28T09:16:37.711Z,100873.53
2022-12-28T09:19:08.848Z,100867.50
2022-12-28T09:21:38.163Z,100866.66
2022-12-28T09:24:05.934Z,100872.69
2022-12-28T09:26:37.033Z,100864.13
2022-12-28T09:29:08.610Z,100856.41
2022-12-28T09:31:37.278Z,100859.94
2022-12-28T09:36:53.978Z,100855.63
2022-12-28T09:39:24.487Z,100847.03
2022-12-28T09:42:23.675Z,100842.72
2022-12-28T09:45:00.473Z,100834.13
2022-12-28T09:47:49.755Z,100820.22
2022-12-28T09:50:16.518Z,100839.41
2022-12-28T09:53:06.373Z,100836.84
2022-12-28T09:55:36.773Z,100824.75
2022-12-28T09:58:05.815Z,100827.44
2022-12-28T10:00:46.826Z,100817.97
2022-12-28T10:03:23.025Z,100818.91
2022-12-28T10:05:51.877Z,100815.47
2022-12-28T10:08:21.890Z,100813.81
2022-12-28T10:10:51.238Z,100813.84
2022-12-28T10:16:19.617Z,100804.41
2022-12-28T10:18:48.069Z,100819.19
2022-12-28T10:21:18.641Z,100805.34
2022-12-28T10:24:21.221Z,100805.31
2022-12-28T10:26:37.564Z,100805.44
2022-12-28T10:29:04.448Z,100806.31
2022-12-28T10:31:39.935Z,100797.66
2022-12-28T10:34:21.146Z,100798.53
2022-12-28T10:36:49.222Z,100794.28
2022-12-28T10:39:23.591Z,100788.25
2022-12-28T10:41:51.346Z,100777.00
2022-12-28T10:44:42.082Z,100775.28
2022-12-28T10:47:35.880Z,100763.22
2022-12-28T10:53:01.359Z,100753.84
2022-12-28T10:55:32.999Z,100751.34
2022-12-28T10:58:30.846Z,100759.97
2022-12-28T11:01:07.642Z,100756.56
2022-12-28T11:03:38.910Z,100741.06
2022-12-28T11:06:26.415Z,100758.44
2022-12-28T11:09:06.362Z,100764.53
2022-12-28T11:11:33.632Z,100749.84
2022-12-28T11:14:15.091Z,100744.72
2022-12-28T11:16:43.315Z,100757.72
2022-12-28T11:19:12.648Z,100751.69
2022-12-28T11:21:41.565Z,100751.72
2022-12-28T11:24:14.214Z,100743.97
2022-12-28T11:26:45.044Z,100738.84
2022-12-28T11:29:15.121Z,100746.66
2022-12-28T11:31:54.026Z,100744.16
2022-12-28T11:34:26.397Z,100743.31
2022-12-28T11:36:53.716Z,100727.75
2022-12-28T11:39:26.318Z,100740.78
2022-12-28T11:42:36.532Z,100733.88
2022-12-28T11:44:49.840Z,100729.59
2022-12-28T11:47:16.638Z,100729.66
2022-12-28T11:49:47.902Z,100738.34
2022-12-28T11:52:17.846Z,100731.44
2022-12-28T11:54:55.833Z,100742.75
2022-12-28T11:57:38.488Z,100725.47
2022-12-28T12:00:22.221Z,100728.97
2022-12-28T12:03:00.865Z,100709.91
2022-12-28T12:05:37.197Z,100725.59
2022-12-28T12:08:16.687Z,100722.13
2022-12-28T12:10:45.384Z,100714.34
2022-12-28T12:13:27.436Z,100710.91
2022-12-28T12:16:04.118Z,100710.13
2022-12-28T12:18:56.299Z,100717.09
2022-12-28T12:21:30.060Z,100717.13
2022-12-28T12:24:26.593Z,100709.38
2022-12-28T12:26:59.454Z,100705.94
2022-12-28T12:29:40.246Z,100702.47
2022-12-28T12:32:22.820Z,100712.03
2022-12-28T12:35:05.966Z,100701.66
2022-12-28T12:38:03.000Z,100710.31
2022-12-28T12:41:00.045Z,100704.28
2022-12-28T12:44:11.321Z,100698.25
2022-12-28T12:46:49.808Z,100706.94
2022-12-28T12:49:37.985Z,100700.03
2022-12-28T12:52:42.807Z,100696.56
2022-12-28T12:55:36.632Z,100707.91
2022-12-28T12:58:26.106Z,100697.50
2022-12-28T13:01:16.369Z,100696.72
2022-12-28T13:03:47.407Z,100690.66
2022-12-28T13:06:19.601Z,100690.66
2022-12-28T13:08:56.338Z,100688.94
2022-12-28T13:11:25.577Z,100682.91
2022-12-28T13:13:54.510Z,100692.44
2022-12-28T13:16:25.121Z,100691.63
2022-12-28T13:19:02.902Z,100685.56
2022-12-28T13:21:43.086Z,100684.72
2022-12-28T13:24:34.433Z,100686.47
2022-12-28T13:27:02.599Z,100692.59
2022-12-28T13:29:38.111Z,100687.41
2022-12-28T13:32:05.119Z,100684.81
2022-12-28T13:34:37.601Z,100689.19
2022-12-28T13:37:15.188Z,100692.66
2022-12-28T13:39:42.739Z,100672.75
2022-12-28T13:42:20.295Z,100685.78
2022-12-28T13:44:59.796Z,100692.72
2022-12-28T13:47:36.118Z,100694.47
2022-12-28T13:50:06.243Z,100680.63
2022-12-28T13:52:50.168Z,100687.56
2022-12-28T13:55:30.608Z,100678.91
2022-12-28T13:58:04.032Z,100675.44
2022-12-28T14:00:33.921Z,100678.94
2022-12-28T14:03:00.838Z,100678.94
2022-12-28T14:05:29.996Z,100677.22
2022-12-28T14:07:58.687Z,100675.47
2022-12-28T14:10:26.814Z,100667.66
2022-12-28T14:12:54.978Z,100677.19
2022-12-28T14:15:22.361Z,100669.38
2022-12-28T14:17:51.483Z,100670.25
2022-12-28T14:20:19.121Z,100672.00
2022-12-28T14:22:46.004Z,100677.22
2022-12-28T14:25:19.779Z,100671.13
2022-12-28T14:28:03.726Z,100667.66
2022-12-28T14:30:55.136Z,100667.66
2022-12-28T14:33:25.457Z,100664.19
2022-12-28T14:36:02.449Z,100672.03
2022-12-28T14:38:34.476Z,100659.88
2022-12-28T14:41:03.123Z,100663.34
2022-12-28T14:43:34.176Z,100665.94
2022-12-28T14:46:37.676Z,100673.72
2022-12-28T14:49:26.446Z,100676.34
2022-12-28T14:51:53.392Z,100673.72
2022-12-28T14:54:26.272Z,100678.94
2022-12-28T14:57:00.555Z,100675.44
2022-12-28T14:59:36.374Z,100684.09
2022-12-28T15:02:04.210Z,100684.13
2022-12-28T15:04:40.814Z,100679.78
2022-12-28T15:07:11.745Z,100685.00
2022-12-28T15:09:38.665Z,100676.31
2022-12-28T15:12:15.253Z,100678.91
2022-12-28T15:14:42.760Z,100669.31
2022-12-28T15:17:10.685Z,100669.34
2022-12-28T15:19:37.573Z,100671.97
2022-12-28T15:22:05.330Z,100671.97
2022-12-28T15:24:34.222Z,100665.00
2022-12-28T15:27:02.967Z,100665.91
2022-12-28T15:32:16.971Z,100665.88
2022-12-28T15:34:43.898Z,100660.69
2022-12-28T15:37:10.793Z,100658.09
2022-12-28T15:39:37.744Z,100674.56
2022-12-28T15:42:04.659Z,100667.63
2022-12-28T15:44:31.728Z,100674.56
2022-12-28T15:46:58.737Z,100671.13
2022-12-28T15:49:26.442Z,100673.72
2022-12-28T15:51:53.346Z,100677.19
2022-12-28T15:54:20.257Z,100677.19
2022-12-28T15:56:53.692Z,100673.69
2022-12-28T15:59:20.863Z,100684.13
2022-12-28T16:01:48.174Z,100678.91
2022-12-28T16:04:15.350Z,100680.66
2022-12-28T16:06:44.961Z,100686.75
2022-12-28T16:09:13.864Z,100676.34
2022-12-28T16:11:41.629Z,100666.75
2022-12-28T16:14:13.888Z,100673.72
2022-12-28T16:16:42.654Z,100678.91
2022-12-28T16:19:14.047Z,100670.25
2022-12-28T16:21:40.940Z,100662.44
2022-12-28T16:24:08.166Z,100665.06
2022-12-28T16:26:35.114Z,100671.13
2022-12-28T16:29:02.722Z,100668.50
2022-12-28T16:31:34.673Z,100674.59
2022-12-28T16:34:05.861Z,100668.53
2022-12-28T16:36:33.242Z,100662.44
2022-12-28T16:39:05.231Z,100666.78
2022-12-28T16:41:36.499Z,100667.59
2022-12-28T16:44:27.278Z,100662.41
2022-12-28T16:46:58.397Z,100659.78
2022-12-28T16:49:27.092Z,100653.72
2022-12-28T16:51:54.104Z,100665.00
2022-12-28T16:54:24.207Z,100662.41
2022-12-28T16:56:51.914Z,100663.28
2022-12-28T16:59:25.498Z,100654.63
2022-12-28T17:01:54.252Z,100647.69
2022-12-28T17:04:21.594Z,100650.31
2022-12-28T17:06:51.637Z,100654.66
2022-12-28T17:09:19.913Z,100646.84
2022-12-28T17:11:49.263Z,100654.66
2022-12-28T17:14:29.110Z,100655.56
2022-12-28T17:17:02.901Z,100647.75
2022-12-28T17:19:29.890Z,100633.00
2022-12-28T17:21:56.773Z,100637.31
2022-12-28T17:24:23.702Z,100620.00
2022-12-28T17:26:50.622Z,100630.41
2022-12-28T17:29:17.544Z,100631.28
2022-12-28T17:31:44.476Z,100631.28
2022-12-28T17:34:11.447Z,100630.41
2022-12-28T17:36:38.330Z,100632.13
2022-12-28T17:39:05.297Z,100625.16
2022-12-28T17:41:32.382Z,100632.13
2022-12-28T17:44:00.482Z,100625.22
2022-12-28T17:46:29.668Z,100626.06
2022-12-28T17:48:58.781Z,100629.56
2022-12-28T17:51:28.473Z,100622.59
2022-12-28T17:53:57.197Z,100613.91
2022-12-28T17:56:24.135Z,100618.25
2022-12-28T17:58:57.126Z,100605.22
2022-12-28T18:01:25.315Z,100608.72
2022-12-28T18:03:52.489Z,100602.63
2022-12-28T18:06:19.888Z,100604.38
2022-12-28T18:08:47.283Z,100600.03
2022-12-28T18:11:14.500Z,100592.22
2022-12-28T18:13:43.209Z,100593.97
2022-12-28T18:16:15.640Z,100589.63
2022-12-28T18:18:43.137Z,100589.63
2022-12-28T18:21:21.146Z,100594.84
2022-12-28T18:23:51.531Z,100574.00
2022-12-28T18:26:23.119Z,100600.94
2022-12-28T18:28:50.231Z,100596.59
2022-12-28T18:31:17.294Z,100595.72
2022-12-28T18:33:44.215Z,100593.16
2022-12-28T18:36:17.489Z,100586.19
2022-12-28T18:38:47.623Z,100587.06
2022-12-28T18:41:17.928Z,100585.34
2022-12-28T18:43:45.208Z,100584.47
2022-12-28T18:46:12.218Z,100585.34
2022-12-28T18:48:40.728Z,100590.53
2022-12-28T18:51:12.102Z,100587.97
2022-12-28T18:53:40.429Z,100592.28
2022-12-28T18:56:08.297Z,100580.13
2022-12-28T18:58:37.739Z,100587.06
2022-12-28T19:01:25.741Z,100581.00
2022-12-28T19:04:00.734Z,100563.63
2022-12-28T19:06:29.151Z,100567.97
2022-12-28T19:09:00.178Z,100562.75
2022-12-28T19:11:27.968Z,100561.03
2022-12-28T19:13:54.881Z,100559.25
2022-12-28T19:16:30.282Z,100573.16
2022-12-28T19:18:58.320Z,100567.94
2022-12-28T19:21:34.607Z,100573.13
2022-12-28T19:24:10.238Z,100570.53
2022-12-28T19:26:37.139Z,100570.50
2022-12-28T19:29:04.683Z,100576.63
2022-12-28T19:31:32.171Z,100574.88
2022-12-28T19:33:59.558Z,100579.22
2022-12-28T19:36:26.647Z,100558.34
2022-12-28T19:38:57.730Z,100576.56
2022-12-28T19:41:24.779Z,100570.47
2022-12-28T19:43:51.791Z,100578.28
2022-12-28T19:46:30.719Z,100580.91
2022-12-28T19:49:03.860Z,100572.22
2022-12-28T19:51:32.579Z,100564.44
2022-12-28T19:54:01.345Z,100566.16
2022-12-28T19:56:28.258Z,100558.34
2022-12-28T19:59:01.081Z,100536.63
2022-12-28T20:01:32.401Z,100553.13
2022-12-28T20:03:59.924Z,100556.63
2022-12-28T20:06:29.276Z,100554.88
2022-12-28T20:09:01.013Z,100543.59
2022-12-28T20:11:29.387Z,100547.94
2022-12-28T20:14:01.524Z,100547.94
2022-12-28T20:16:31.711Z,100549.66
2022-12-28T20:18:58.982Z,100541.88
2022-12-28T20:21:26.537Z,100541.03
2022-12-28T20:23:55.062Z,100533.19
2022-12-28T20:26:24.938Z,100536.69
2022-12-28T20:28:52.802Z,100527.97
2022-12-28T20:31:20.337Z,100530.56
2022-12-28T20:33:47.383Z,100535.78
2022-12-28T20:36:24.002Z,100531.44
2022-12-28T20:38:51.291Z,100534.91
2022-12-28T20:41:42.616Z,100532.31
2022-12-28T20:44:16.400Z,100531.44
2022-12-28T20:46:44.655Z,100528.84
2022-12-28T20:49:12.255Z,100532.31
2022-12-28T20:51:39.351Z,100523.66
2022-12-28T20:54:06.376Z,100520.19
2022-12-28T20:56:35.013Z,100526.25
2022-12-28T20:59:01.929Z,100520.19
2022-12-28T21:01:28.951Z,100506.28
2022-12-28T21:03:56.112Z,100507.19
2022-12-28T21:06:23.065Z,100491.56
2022-12-28T21:08:49.953Z,100489.81
2022-12-28T21:11:16.854Z,100469.88
2022-12-28T21:13:44.922Z,100471.63
2022-12-28T21:16:13.672Z,100452.56
2022-12-28T21:18:41.608Z,100446.47
2022-12-28T21:21:15.524Z,100447.34
2022-12-28T21:23:42.438Z,100445.59
2022-12-28T21:26:13.472Z,100450.81
2022-12-28T21:28:41.196Z,100443.88
2022-12-28T21:31:10.147Z,100440.38
2022-12-28T21:33:38.227Z,100439.50
2022-12-28T21:36:19.096Z,100437.78
2022-12-28T21:38:48.694Z,100426.50
2022-12-28T21:41:40.353Z,100417.81
2022-12-28T21:44:09.620Z,100427.34
2022-12-28T21:46:36.801Z,100416.09
2022-12-28T21:49:04.488Z,100423.03
2022-12-28T21:51:31.714Z,100420.41
2022-12-28T21:54:16.497Z,100401.34
2022-12-28T21:56:45.653Z,100399.59
2022-12-28T21:59:13.520Z,100399.59
2022-12-28T22:02:00.522Z,100390.94
2022-12-28T22:04:46.756Z,100384.84
2022-12-28T22:07:17.380Z,100377.91
2022-12-28T22:10:02.610Z,100373.56
2022-12-28T22:12:35.847Z,100371.81
2022-12-28T22:15:35.619Z,100374.44
2022-12-28T22:18:52.629Z,100370.97
2022-12-28T22:21:08.485Z,100364.88
2022-12-28T22:23:35.413Z,100362.28
2022-12-28T22:26:02.799Z,100357.09
2022-12-28T22:28:29.918Z,100356.22
2022-12-28T22:30:56.907Z,100347.56
2022-12-28T22:33:23.819Z,100345.81
2022-12-28T22:35:50.717Z,100344.09
2022-12-28T22:38:17.601Z,100341.50
2022-12-28T22:40:44.499Z,100338.91
2022-12-28T22:43:11.460Z,100340.59
2022-12-28T22:45:38.440Z,100333.69
2022-12-28T22:48:05.587Z,100333.69
2022-12-28T22:50:33.417Z,100338.91
2022-12-28T22:53:02.614Z,100338.00
2022-12-28T22:55:29.543Z,100328.50
2022-12-28T22:57:56.446Z,100319.81
2022-12-28T23:00:23.709Z,100325.03
2022-12-28T23:02:50.721Z,100326.75
2022-12-28T23:05:17.813Z,100322.44
2022-12-28T23:07:44.701Z,100316.38
2022-12-28T23:10:11.576Z,100315.50
2022-12-28T23:12:38.490Z,100317.25
2022-12-28T23:15:21.663Z,100309.44
2022-12-28T23:17:49.388Z,100309.44
2022-12-28T23:20:35.252Z,100305.09
2022-12-28T23:23:02.100Z,100303.38
2022-12-28T23:25:47.562Z,100297.28
2022-12-28T23:28:16.308Z,100289.50
2022-12-28T23:30:48.514Z,100287.75
2022-12-28T23:33:16.781Z,100272.16
2022-12-28T23:35:44.098Z,100272.16
2022-12-28T23:38:11.496Z,100276.50
2022-12-28T23:40:40.180Z,100267.81
2022-12-28T23:43:07.717Z,100251.34
2022-12-28T23:45:36.052Z,100253.97
2022-12-28T23:48:03.183Z,100250.50
2022-12-28T23:50:30.142Z,100243.56
2022-12-28T23:52:57.028Z,100237.47
2022-12-28T23:55:23.983Z,100242.69
2022-12-28T23:57:50.913Z,100238.34
